Hlavní strana
METAR-TAF:

METAR-TAF

Letiště :

Vinnycja, Ukrajina

zeměpisná šířka: 49-14-23N, zeměpisná délka: 028-36-50E, výška: 974 m

Aktuální stav počasí

Zpráva byla vytvořena před 44 minutami, v 03:00 UTC
Západní vítr 6 kt
Teplota 0°C
Vlhkost vzduchu 100%
Tlak 1021 hPa
Viditelnost: 1400 m
kouřmo

METAR: UKWW 170300Z 26003MPS 1400 BR NSC 00/00 Q1021 TEMPO 0400 FG VV002

Čas: 05:44 (03:44 UTC)

Předpověď počasí

Zpráva byla vytvořena před 34 minutami, v 03:10 UTC
Předpověď platná od 17 v 03 UTC do 17 v 12 UTC
Západoseverozápadní vítr 6 kt s nárazy do 16 kt
Viditelnost: 3000 m
Zataženo ve výšce 800 ft
kouřmo
Dočasný
od 17 v 03 UTC do 17 v 09 UTC
Viditelnost: 0400 m
ve výšce 200 ft
mlha

TAF: UKWW 170310Z 1703/1712 30003G08MPS 3000 BR OVC008 TX07/1712Z TN02/1703Z TEMPO 1703/1709 0400 FG VV002

Stav a předpovědi počasí z více než 4 000 letišť (zprávy METAR a TAF).

Červené a žluté tečky na mapě představují dostupné meteorologické stanice.

Když kurzor umístíte na tečku, zobrazí se název stanice.

Pak kliknutím zobrazíte stav a předpověď počasí.

Chcete-li změnit mapu, kliknutím na zelené tlačítko se znaménkem +mapu přiblížíte, kliknutím na zelené tlačítko se znaménkem – mapu oddálíte a kliknutím na zelené šipky přejdete na sousední mapy.


METAR-TAF: